Terminal Aerodrome Forecast
Issued by NWS Wilmington, NC

Current Version | Previous Version | Text Only | Print | Product List | Glossary On
Versions: 1 2 3 4 5 6 7 8 9 10 11 12 13
000
FTUS42 KILM 290500
TAFMYR
TAF
KMYR 290529Z 2906/3006 VRB03KT P6SM SKC
     FM291600 17012KT P6SM SCT250
     FM300100 21006KT P6SM OVC100
      AMD LTD TO CLD VIS AND WIND TIL 291100=

USA.gov is the U.S. government's official web portal to all federal, state and local government web resources and services.